sensor_id;sensor_type;location;lat;lon;timestamp;P1;durP1;ratioP1;P2;durP2;ratioP2
34212;SDS011;20477;51.390;8.102;2023-04-24T00:01:06;1.38;;;0.63;;
34212;SDS011;20477;51.390;8.102;2023-04-24T00:03:35;0.80;;;0.50;;
34212;SDS011;20477;51.390;8.102;2023-04-24T00:06:05;1.23;;;0.60;;
34212;SDS011;20477;51.390;8.102;2023-04-24T00:08:34;3.92;;;1.45;;
34212;SDS011;20477;51.390;8.102;2023-04-24T00:11:02;1.70;;;0.60;;
34212;SDS011;20477;51.390;8.102;2023-04-24T00:13:30;2.88;;;0.93;;
34212;SDS011;20477;51.390;8.102;2023-04-24T00:15:58;1.20;;;0.70;;
34212;SDS011;20477;51.390;8.102;2023-04-24T00:18:26;0.50;;;0.50;;
34212;SDS011;20477;51.390;8.102;2023-04-24T00:20:54;0.60;;;0.60;;
34212;SDS011;20477;51.390;8.102;2023-04-24T00:23:24;0.82;;;0.50;;
34212;SDS011;20477;51.390;8.102;2023-04-24T00:25:52;1.05;;;0.70;;
34212;SDS011;20477;51.390;8.102;2023-04-24T00:28:20;2.67;;;0.50;;
34212;SDS011;20477;51.390;8.102;2023-04-24T00:30:48;0.60;;;0.50;;
34212;SDS011;20477;51.390;8.102;2023-04-24T00:33:16;0.80;;;0.70;;
34212;SDS011;20477;51.390;8.102;2023-04-24T00:35:44;1.52;;;0.57;;
34212;SDS011;20477;51.390;8.102;2023-04-24T00:38:12;3.63;;;0.50;;
34212;SDS011;20477;51.390;8.102;2023-04-24T00:40:41;0.60;;;0.60;;
34212;SDS011;20477;51.390;8.102;2023-04-24T00:43:09;0.28;;;0.28;;
34212;SDS011;20477;51.390;8.102;2023-04-24T00:45:38;1.48;;;0.75;;
34212;SDS011;20477;51.390;8.102;2023-04-24T00:48:06;0.73;;;0.40;;
34212;SDS011;20477;51.390;8.102;2023-04-24T00:50:35;2.35;;;0.50;;
34212;SDS011;20477;51.390;8.102;2023-04-24T00:53:03;0.60;;;0.60;;
34212;SDS011;20477;51.390;8.102;2023-04-24T00:55:31;0.95;;;0.60;;
34212;SDS011;20477;51.390;8.102;2023-04-24T00:58:01;6.28;;;0.63;;
34212;SDS011;20477;51.390;8.102;2023-04-24T01:00:29;0.80;;;0.60;;
34212;SDS011;20477;51.390;8.102;2023-04-24T01:02:58;1.55;;;0.75;;
34212;SDS011;20477;51.390;8.102;2023-04-24T01:05:27;1.20;;;0.55;;
34212;SDS011;20477;51.390;8.102;2023-04-24T01:07:55;1.73;;;0.70;;
34212;SDS011;20477;51.390;8.102;2023-04-24T01:10:24;1.55;;;0.70;;
34212;SDS011;20477;51.390;8.102;2023-04-24T01:12:52;1.08;;;0.82;;
34212;SDS011;20477;51.390;8.102;2023-04-24T01:15:22;2.85;;;0.70;;
34212;SDS011;20477;51.390;8.102;2023-04-24T01:17:50;1.02;;;0.93;;
34212;SDS011;20477;51.390;8.102;2023-04-24T01:20:18;0.75;;;0.73;;
34212;SDS011;20477;51.390;8.102;2023-04-24T01:22:48;1.17;;;0.82;;
34212;SDS011;20477;51.390;8.102;2023-04-24T01:25:16;2.03;;;0.88;;
34212;SDS011;20477;51.390;8.102;2023-04-24T01:27:44;1.10;;;0.82;;
34212;SDS011;20477;51.390;8.102;2023-04-24T01:30:13;1.80;;;1.08;;
34212;SDS011;20477;51.390;8.102;2023-04-24T01:32:41;1.08;;;0.98;;
34212;SDS011;20477;51.390;8.102;2023-04-24T01:35:11;1.17;;;0.98;;
34212;SDS011;20477;51.390;8.102;2023-04-24T01:37:39;1.65;;;0.77;;
34212;SDS011;20477;51.390;8.102;2023-04-24T01:40:09;1.00;;;0.80;;
34212;SDS011;20477;51.390;8.102;2023-04-24T01:42:37;1.00;;;0.90;;
34212;SDS011;20477;51.390;8.102;2023-04-24T01:45:05;0.90;;;0.80;;
34212;SDS011;20477;51.390;8.102;2023-04-24T01:47:34;1.88;;;0.88;;
34212;SDS011;20477;51.390;8.102;2023-04-24T01:50:03;0.82;;;0.80;;
34212;SDS011;20477;51.390;8.102;2023-04-24T01:52:31;2.25;;;1.00;;
34212;SDS011;20477;51.390;8.102;2023-04-24T01:55:01;0.80;;;0.80;;
34212;SDS011;20477;51.390;8.102;2023-04-24T01:57:31;1.00;;;0.90;;
34212;SDS011;20477;51.390;8.102;2023-04-24T02:00:01;1.02;;;0.80;;
34212;SDS011;20477;51.390;8.102;2023-04-24T02:02:30;2.67;;;0.90;;
34212;SDS011;20477;51.390;8.102;2023-04-24T02:04:59;2.15;;;1.00;;
34212;SDS011;20477;51.390;8.102;2023-04-24T02:07:27;1.23;;;0.82;;
34212;SDS011;20477;51.390;8.102;2023-04-24T02:09:55;1.38;;;0.70;;
34212;SDS011;20477;51.390;8.102;2023-04-24T02:12:23;3.50;;;0.85;;
34212;SDS011;20477;51.390;8.102;2023-04-24T02:14:52;1.83;;;0.77;;
34212;SDS011;20477;51.390;8.102;2023-04-24T02:17:20;1.48;;;0.90;;
34212;SDS011;20477;51.390;8.102;2023-04-24T02:19:48;1.15;;;0.73;;
34212;SDS011;20477;51.390;8.102;2023-04-24T02:22:17;1.95;;;0.90;;
34212;SDS011;20477;51.390;8.102;2023-04-24T02:24:45;1.33;;;1.02;;
34212;SDS011;20477;51.390;8.102;2023-04-24T02:27:13;4.93;;;0.90;;
34212;SDS011;20477;51.390;8.102;2023-04-24T02:29:41;1.13;;;0.98;;
34212;SDS011;20477;51.390;8.102;2023-04-24T02:32:10;1.05;;;0.70;;
34212;SDS011;20477;51.390;8.102;2023-04-24T02:34:39;2.88;;;0.90;;
34212;SDS011;20477;51.390;8.102;2023-04-24T02:37:07;0.88;;;0.80;;
34212;SDS011;20477;51.390;8.102;2023-04-24T02:39:35;0.82;;;0.70;;
34212;SDS011;20477;51.390;8.102;2023-04-24T02:42:03;0.93;;;0.80;;
34212;SDS011;20477;51.390;8.102;2023-04-24T02:44:31;1.00;;;0.90;;
34212;SDS011;20477;51.390;8.102;2023-04-24T02:46:59;1.88;;;0.80;;
34212;SDS011;20477;51.390;8.102;2023-04-24T02:49:28;2.90;;;0.85;;
34212;SDS011;20477;51.390;8.102;2023-04-24T02:51:56;2.17;;;0.73;;
34212;SDS011;20477;51.390;8.102;2023-04-24T02:54:24;2.38;;;0.93;;
34212;SDS011;20477;51.390;8.102;2023-04-24T02:56:52;1.20;;;1.10;;
34212;SDS011;20477;51.390;8.102;2023-04-24T02:59:21;2.22;;;1.10;;
34212;SDS011;20477;51.390;8.102;2023-04-24T03:01:49;1.30;;;0.95;;
34212;SDS011;20477;51.390;8.102;2023-04-24T03:04:17;1.50;;;1.17;;
34212;SDS011;20477;51.390;8.102;2023-04-24T03:06:48;5.63;;;1.65;;
34212;SDS011;20477;51.390;8.102;2023-04-24T03:09:18;3.10;;;1.98;;
34212;SDS011;20477;51.390;8.102;2023-04-24T03:11:46;2.60;;;1.83;;
34212;SDS011;20477;51.390;8.102;2023-04-24T03:14:14;2.13;;;1.90;;
34212;SDS011;20477;51.390;8.102;2023-04-24T03:16:42;3.28;;;2.17;;
34212;SDS011;20477;51.390;8.102;2023-04-24T03:19:11;2.70;;;2.08;;
34212;SDS011;20477;51.390;8.102;2023-04-24T03:21:39;2.47;;;2.17;;
34212;SDS011;20477;51.390;8.102;2023-04-24T03:24:08;2.05;;;1.85;;
34212;SDS011;20477;51.390;8.102;2023-04-24T03:26:36;3.53;;;2.10;;
34212;SDS011;20477;51.390;8.102;2023-04-24T03:29:04;2.72;;;2.00;;
34212;SDS011;20477;51.390;8.102;2023-04-24T03:31:32;3.03;;;2.28;;
34212;SDS011;20477;51.390;8.102;2023-04-24T03:34:01;2.63;;;2.08;;
34212;SDS011;20477;51.390;8.102;2023-04-24T03:36:29;2.92;;;1.98;;
34212;SDS011;20477;51.390;8.102;2023-04-24T03:38:57;2.58;;;2.00;;
34212;SDS011;20477;51.390;8.102;2023-04-24T03:41:27;4.03;;;2.15;;
34212;SDS011;20477;51.390;8.102;2023-04-24T03:43:56;3.60;;;2.20;;
34212;SDS011;20477;51.390;8.102;2023-04-24T03:46:24;4.13;;;2.42;;
34212;SDS011;20477;51.390;8.102;2023-04-24T03:48:52;2.45;;;2.03;;
34212;SDS011;20477;51.390;8.102;2023-04-24T03:51:20;4.75;;;2.85;;
34212;SDS011;20477;51.390;8.102;2023-04-24T03:53:49;4.35;;;2.83;;
34212;SDS011;20477;51.390;8.102;2023-04-24T03:56:17;6.40;;;2.70;;
34212;SDS011;20477;51.390;8.102;2023-04-24T03:58:46;4.38;;;3.00;;
34212;SDS011;20477;51.390;8.102;2023-04-24T04:01:14;3.38;;;2.53;;
34212;SDS011;20477;51.390;8.102;2023-04-24T04:03:43;4.88;;;3.65;;
34212;SDS011;20477;51.390;8.102;2023-04-24T04:06:11;6.15;;;4.05;;
34212;SDS011;20477;51.390;8.102;2023-04-24T04:08:39;5.45;;;3.28;;
34212;SDS011;20477;51.390;8.102;2023-04-24T04:11:07;5.63;;;3.90;;
34212;SDS011;20477;51.390;8.102;2023-04-24T04:13:35;6.57;;;4.18;;
34212;SDS011;20477;51.390;8.102;2023-04-24T04:16:05;7.45;;;4.15;;
34212;SDS011;20477;51.390;8.102;2023-04-24T04:18:33;5.63;;;3.85;;
34212;SDS011;20477;51.390;8.102;2023-04-24T04:21:01;7.35;;;5.35;;
34212;SDS011;20477;51.390;8.102;2023-04-24T04:23:29;7.38;;;5.53;;
34212;SDS011;20477;51.390;8.102;2023-04-24T04:25:58;8.93;;;5.60;;
34212;SDS011;20477;51.390;8.102;2023-04-24T04:28:26;9.60;;;6.05;;
34212;SDS011;20477;51.390;8.102;2023-04-24T04:30:54;11.55;;;6.38;;
34212;SDS011;20477;51.390;8.102;2023-04-24T04:33:25;7.18;;;5.38;;
34212;SDS011;20477;51.390;8.102;2023-04-24T04:35:53;10.23;;;6.32;;
34212;SDS011;20477;51.390;8.102;2023-04-24T04:38:23;8.73;;;5.35;;
34212;SDS011;20477;51.390;8.102;2023-04-24T04:40:52;9.55;;;6.07;;
34212;SDS011;20477;51.390;8.102;2023-04-24T04:43:22;7.97;;;6.68;;
34212;SDS011;20477;51.390;8.102;2023-04-24T04:45:51;8.75;;;5.93;;
34212;SDS011;20477;51.390;8.102;2023-04-24T04:48:20;8.63;;;6.55;;
34212;SDS011;20477;51.390;8.102;2023-04-24T04:50:50;11.48;;;6.63;;
34212;SDS011;20477;51.390;8.102;2023-04-24T04:53:18;10.27;;;6.13;;
34212;SDS011;20477;51.390;8.102;2023-04-24T04:55:46;8.52;;;7.03;;
34212;SDS011;20477;51.390;8.102;2023-04-24T04:58:14;9.68;;;7.25;;
34212;SDS011;20477;51.390;8.102;2023-04-24T05:00:42;11.18;;;6.68;;
34212;SDS011;20477;51.390;8.102;2023-04-24T05:03:10;13.10;;;8.55;;
34212;SDS011;20477;51.390;8.102;2023-04-24T05:05:44;17.13;;;8.45;;
34212;SDS011;20477;51.390;8.102;2023-04-24T05:08:13;11.25;;;7.78;;
34212;SDS011;20477;51.390;8.102;2023-04-24T05:10:52;11.90;;;7.65;;
34212;SDS011;20477;51.390;8.102;2023-04-24T05:13:22;10.07;;;8.00;;
34212;SDS011;20477;51.390;8.102;2023-04-24T05:16:04;13.65;;;8.57;;
34212;SDS011;20477;51.390;8.102;2023-04-24T05:18:33;13.27;;;8.40;;
34212;SDS011;20477;51.390;8.102;2023-04-24T05:21:01;11.50;;;8.75;;
34212;SDS011;20477;51.390;8.102;2023-04-24T05:23:30;10.60;;;7.93;;
34212;SDS011;20477;51.390;8.102;2023-04-24T05:25:58;11.98;;;7.15;;
34212;SDS011;20477;51.390;8.102;2023-04-24T05:28:26;11.75;;;7.57;;
34212;SDS011;20477;51.390;8.102;2023-04-24T05:30:55;9.25;;;7.38;;
34212;SDS011;20477;51.390;8.102;2023-04-24T05:33:23;13.25;;;7.57;;
34212;SDS011;20477;51.390;8.102;2023-04-24T05:35:51;9.13;;;6.40;;
34212;SDS011;20477;51.390;8.102;2023-04-24T05:38:19;9.38;;;6.57;;
34212;SDS011;20477;51.390;8.102;2023-04-24T05:40:48;11.43;;;7.43;;
34212;SDS011;20477;51.390;8.102;2023-04-24T05:43:16;12.98;;;7.50;;
34212;SDS011;20477;51.390;8.102;2023-04-24T05:45:45;13.45;;;7.95;;
34212;SDS011;20477;51.390;8.102;2023-04-24T05:48:13;11.05;;;7.25;;
34212;SDS011;20477;51.390;8.102;2023-04-24T05:50:41;11.13;;;7.18;;
34212;SDS011;20477;51.390;8.102;2023-04-24T05:53:09;10.55;;;7.15;;
34212;SDS011;20477;51.390;8.102;2023-04-24T05:55:37;10.85;;;7.35;;
34212;SDS011;20477;51.390;8.102;2023-04-24T05:58:07;9.88;;;6.80;;
34212;SDS011;20477;51.390;8.102;2023-04-24T06:00:35;9.65;;;6.38;;
34212;SDS011;20477;51.390;8.102;2023-04-24T06:03:03;8.68;;;6.78;;
34212;SDS011;20477;51.390;8.102;2023-04-24T06:05:32;12.60;;;6.40;;
34212;SDS011;20477;51.390;8.102;2023-04-24T06:08:00;9.38;;;6.55;;
34212;SDS011;20477;51.390;8.102;2023-04-24T06:10:28;8.73;;;6.22;;
34212;SDS011;20477;51.390;8.102;2023-04-24T06:12:56;9.57;;;6.38;;
34212;SDS011;20477;51.390;8.102;2023-04-24T06:15:29;8.15;;;6.25;;
34212;SDS011;20477;51.390;8.102;2023-04-24T06:17:57;7.20;;;5.68;;
34212;SDS011;20477;51.390;8.102;2023-04-24T06:20:26;8.65;;;5.85;;
34212;SDS011;20477;51.390;8.102;2023-04-24T06:22:54;9.93;;;5.88;;
34212;SDS011;20477;51.390;8.102;2023-04-24T06:25:24;10.02;;;5.80;;
34212;SDS011;20477;51.390;8.102;2023-04-24T06:27:52;8.10;;;5.40;;
34212;SDS011;20477;51.390;8.102;2023-04-24T06:30:21;11.90;;;5.82;;
34212;SDS011;20477;51.390;8.102;2023-04-24T06:32:50;8.95;;;5.43;;
34212;SDS011;20477;51.390;8.102;2023-04-24T06:37:51;7.03;;;5.20;;
34212;SDS011;20477;51.390;8.102;2023-04-24T06:40:19;8.10;;;4.47;;
34212;SDS011;20477;51.390;8.102;2023-04-24T06:42:47;10.95;;;4.97;;
34212;SDS011;20477;51.390;8.102;2023-04-24T06:45:15;8.32;;;5.32;;
34212;SDS011;20477;51.390;8.102;2023-04-24T06:47:43;7.80;;;5.22;;
34212;SDS011;20477;51.390;8.102;2023-04-24T06:50:13;14.43;;;4.40;;
34212;SDS011;20477;51.390;8.102;2023-04-24T06:52:41;7.95;;;5.07;;
34212;SDS011;20477;51.390;8.102;2023-04-24T06:55:09;7.65;;;4.93;;
34212;SDS011;20477;51.390;8.102;2023-04-24T06:57:37;6.20;;;5.03;;
34212;SDS011;20477;51.390;8.102;2023-04-24T07:00:06;7.72;;;4.68;;
34212;SDS011;20477;51.390;8.102;2023-04-24T07:02:36;7.82;;;5.57;;
34212;SDS011;20477;51.390;8.102;2023-04-24T07:05:04;7.30;;;4.60;;
34212;SDS011;20477;51.390;8.102;2023-04-24T07:07:36;6.55;;;5.13;;
34212;SDS011;20477;51.390;8.102;2023-04-24T07:10:06;4.78;;;4.20;;
34212;SDS011;20477;51.390;8.102;2023-04-24T07:12:35;7.35;;;5.00;;
34212;SDS011;20477;51.390;8.102;2023-04-24T07:15:04;8.25;;;4.70;;
34212;SDS011;20477;51.390;8.102;2023-04-24T07:17:34;7.20;;;4.57;;
34212;SDS011;20477;51.390;8.102;2023-04-24T07:20:02;5.07;;;4.57;;
34212;SDS011;20477;51.390;8.102;2023-04-24T07:22:31;6.03;;;4.78;;
34212;SDS011;20477;51.390;8.102;2023-04-24T07:25:01;8.13;;;5.30;;
34212;SDS011;20477;51.390;8.102;2023-04-24T07:27:29;11.13;;;4.93;;
34212;SDS011;20477;51.390;8.102;2023-04-24T07:29:57;5.97;;;4.60;;
34212;SDS011;20477;51.390;8.102;2023-04-24T07:32:25;8.00;;;5.18;;
34212;SDS011;20477;51.390;8.102;2023-04-24T07:34:53;12.02;;;5.50;;
34212;SDS011;20477;51.390;8.102;2023-04-24T07:37:21;7.30;;;4.95;;
34212;SDS011;20477;51.390;8.102;2023-04-24T07:39:50;8.55;;;4.88;;
34212;SDS011;20477;51.390;8.102;2023-04-24T07:42:19;6.65;;;4.68;;
34212;SDS011;20477;51.390;8.102;2023-04-24T07:44:47;7.47;;;4.28;;
34212;SDS011;20477;51.390;8.102;2023-04-24T07:47:15;7.55;;;4.35;;
34212;SDS011;20477;51.390;8.102;2023-04-24T07:49:43;6.65;;;4.10;;
34212;SDS011;20477;51.390;8.102;2023-04-24T07:52:11;6.53;;;4.28;;
34212;SDS011;20477;51.390;8.102;2023-04-24T07:54:39;5.85;;;3.85;;
34212;SDS011;20477;51.390;8.102;2023-04-24T07:57:09;5.88;;;3.83;;
34212;SDS011;20477;51.390;8.102;2023-04-24T07:59:38;5.72;;;4.18;;
34212;SDS011;20477;51.390;8.102;2023-04-24T08:02:07;5.50;;;3.38;;
34212;SDS011;20477;51.390;8.102;2023-04-24T08:04:36;3.13;;;2.72;;
34212;SDS011;20477;51.390;8.102;2023-04-24T08:07:04;3.90;;;3.30;;
34212;SDS011;20477;51.390;8.102;2023-04-24T08:09:33;4.65;;;3.42;;
34212;SDS011;20477;51.390;8.102;2023-04-24T08:12:01;6.45;;;3.10;;
34212;SDS011;20477;51.390;8.102;2023-04-24T08:14:30;4.25;;;3.33;;
34212;SDS011;20477;51.390;8.102;2023-04-24T08:16:59;5.22;;;3.40;;
34212;SDS011;20477;51.390;8.102;2023-04-24T08:19:28;4.45;;;2.83;;
34212;SDS011;20477;51.390;8.102;2023-04-24T08:21:56;4.28;;;2.53;;
34212;SDS011;20477;51.390;8.102;2023-04-24T08:24:24;3.00;;;2.00;;
34212;SDS011;20477;51.390;8.102;2023-04-24T08:26:52;2.03;;;1.75;;
34212;SDS011;20477;51.390;8.102;2023-04-24T08:29:22;1.98;;;1.73;;
34212;SDS011;20477;51.390;8.102;2023-04-24T08:31:51;3.67;;;1.80;;
34212;SDS011;20477;51.390;8.102;2023-04-24T08:34:22;2.05;;;1.30;;
34212;SDS011;20477;51.390;8.102;2023-04-24T08:36:50;1.85;;;1.42;;
34212;SDS011;20477;51.390;8.102;2023-04-24T08:39:18;2.25;;;1.70;;
34212;SDS011;20477;51.390;8.102;2023-04-24T08:41:46;1.55;;;1.20;;
34212;SDS011;20477;51.390;8.102;2023-04-24T08:44:16;2.10;;;1.25;;
34212;SDS011;20477;51.390;8.102;2023-04-24T08:46:44;1.10;;;1.00;;
34212;SDS011;20477;51.390;8.102;2023-04-24T08:49:14;1.17;;;0.85;;
34212;SDS011;20477;51.390;8.102;2023-04-24T08:51:44;1.67;;;1.08;;
34212;SDS011;20477;51.390;8.102;2023-04-24T08:54:13;2.13;;;1.15;;
34212;SDS011;20477;51.390;8.102;2023-04-24T08:56:41;2.13;;;0.80;;
34212;SDS011;20477;51.390;8.102;2023-04-24T08:59:11;1.10;;;0.80;;
34212;SDS011;20477;51.390;8.102;2023-04-24T09:01:39;1.05;;;0.93;;
34212;SDS011;20477;51.390;8.102;2023-04-24T09:04:08;1.50;;;0.90;;
34212;SDS011;20477;51.390;8.102;2023-04-24T09:06:38;2.28;;;1.42;;
34212;SDS011;20477;51.390;8.102;2023-04-24T09:09:08;1.92;;;0.90;;
34212;SDS011;20477;51.390;8.102;2023-04-24T09:11:38;1.73;;;0.90;;
34212;SDS011;20477;51.390;8.102;2023-04-24T09:14:07;1.10;;;1.00;;
34212;SDS011;20477;51.390;8.102;2023-04-24T09:16:37;0.73;;;0.73;;
34212;SDS011;20477;51.390;8.102;2023-04-24T09:19:05;1.83;;;0.65;;
34212;SDS011;20477;51.390;8.102;2023-04-24T09:21:33;2.15;;;0.70;;
34212;SDS011;20477;51.390;8.102;2023-04-24T09:24:02;0.88;;;0.70;;
34212;SDS011;20477;51.390;8.102;2023-04-24T09:26:34;0.47;;;0.47;;
34212;SDS011;20477;51.390;8.102;2023-04-24T09:29:03;0.68;;;0.68;;
34212;SDS011;20477;51.390;8.102;2023-04-24T09:31:31;2.33;;;0.57;;
34212;SDS011;20477;51.390;8.102;2023-04-24T09:34:00;0.93;;;0.30;;
34212;SDS011;20477;51.390;8.102;2023-04-24T09:36:33;1.58;;;1.13;;
34212;SDS011;20477;51.390;8.102;2023-04-24T09:39:03;1.02;;;0.40;;
34212;SDS011;20477;51.390;8.102;2023-04-24T09:41:35;1.83;;;0.85;;
34212;SDS011;20477;51.390;8.102;2023-04-24T09:44:12;0.43;;;0.43;;
34212;SDS011;20477;51.390;8.102;2023-04-24T09:46:41;0.43;;;0.38;;
34212;SDS011;20477;51.390;8.102;2023-04-24T09:49:10;0.65;;;0.65;;
34212;SDS011;20477;51.390;8.102;2023-04-24T09:51:39;1.42;;;0.50;;
34212;SDS011;20477;51.390;8.102;2023-04-24T09:54:13;0.40;;;0.40;;
34212;SDS011;20477;51.390;8.102;2023-04-24T09:56:45;0.50;;;0.50;;
34212;SDS011;20477;51.390;8.102;2023-04-24T09:59:14;3.03;;;0.40;;
34212;SDS011;20477;51.390;8.102;2023-04-24T10:01:43;0.65;;;0.47;;
34212;SDS011;20477;51.390;8.102;2023-04-24T10:04:15;0.50;;;0.50;;
34212;SDS011;20477;51.390;8.102;2023-04-24T10:06:44;0.40;;;0.40;;
34212;SDS011;20477;51.390;8.102;2023-04-24T10:09:13;0.70;;;0.50;;
34212;SDS011;20477;51.390;8.102;2023-04-24T10:11:41;0.50;;;0.50;;
34212;SDS011;20477;51.390;8.102;2023-04-24T10:14:13;1.63;;;0.70;;
34212;SDS011;20477;51.390;8.102;2023-04-24T10:16:42;0.50;;;0.50;;
34212;SDS011;20477;51.390;8.102;2023-04-24T10:19:13;1.13;;;0.77;;
34212;SDS011;20477;51.390;8.102;2023-04-24T10:21:42;0.50;;;0.50;;
34212;SDS011;20477;51.390;8.102;2023-04-24T10:24:13;0.60;;;0.60;;
34212;SDS011;20477;51.390;8.102;2023-04-24T10:26:42;0.73;;;0.60;;
34212;SDS011;20477;51.390;8.102;2023-04-24T10:29:11;2.83;;;0.80;;
34212;SDS011;20477;51.390;8.102;2023-04-24T10:31:42;1.48;;;0.50;;
34212;SDS011;20477;51.390;8.102;2023-04-24T10:34:12;0.52;;;0.45;;
34212;SDS011;20477;51.390;8.102;2023-04-24T10:36:42;0.40;;;0.40;;
34212;SDS011;20477;51.390;8.102;2023-04-24T10:39:12;0.70;;;0.70;;
34212;SDS011;20477;51.390;8.102;2023-04-24T10:41:41;0.60;;;0.50;;
34212;SDS011;20477;51.390;8.102;2023-04-24T10:44:10;0.68;;;0.68;;
34212;SDS011;20477;51.390;8.102;2023-04-24T10:46:42;2.05;;;0.60;;
34212;SDS011;20477;51.390;8.102;2023-04-24T10:49:11;3.60;;;0.57;;
34212;SDS011;20477;51.390;8.102;2023-04-24T10:51:44;0.50;;;0.50;;
34212;SDS011;20477;51.390;8.102;2023-04-24T10:54:23;0.60;;;0.57;;
34212;SDS011;20477;51.390;8.102;2023-04-24T10:56:52;0.70;;;0.70;;
34212;SDS011;20477;51.390;8.102;2023-04-24T10:59:27;0.90;;;0.80;;
34212;SDS011;20477;51.390;8.102;2023-04-24T11:01:56;1.73;;;0.82;;
34212;SDS011;20477;51.390;8.102;2023-04-24T11:04:31;3.40;;;0.90;;
34212;SDS011;20477;51.390;8.102;2023-04-24T11:06:59;3.35;;;2.03;;
34212;SDS011;20477;51.390;8.102;2023-04-24T11:09:27;0.80;;;0.80;;
34212;SDS011;20477;51.390;8.102;2023-04-24T11:12:02;2.30;;;1.15;;
34212;SDS011;20477;51.390;8.102;2023-04-24T11:17:31;1.60;;;1.40;;
34212;SDS011;20477;51.390;8.102;2023-04-24T11:20:00;2.63;;;1.42;;
34212;SDS011;20477;51.390;8.102;2023-04-24T11:22:44;3.50;;;1.80;;
34212;SDS011;20477;51.390;8.102;2023-04-24T11:25:13;1.92;;;1.27;;
34212;SDS011;20477;51.390;8.102;2023-04-24T11:27:43;2.30;;;1.58;;
34212;SDS011;20477;51.390;8.102;2023-04-24T11:30:12;1.40;;;1.30;;
34212;SDS011;20477;51.390;8.102;2023-04-24T11:32:48;3.60;;;1.90;;
34212;SDS011;20477;51.390;8.102;2023-04-24T11:35:18;4.10;;;2.00;;
34212;SDS011;20477;51.390;8.102;2023-04-24T11:37:48;4.07;;;1.95;;
34212;SDS011;20477;51.390;8.102;2023-04-24T11:40:38;3.28;;;2.00;;
34212;SDS011;20477;51.390;8.102;2023-04-24T11:43:06;3.67;;;2.10;;
34212;SDS011;20477;51.390;8.102;2023-04-24T11:45:34;2.63;;;2.05;;
34212;SDS011;20477;51.390;8.102;2023-04-24T11:48:04;3.65;;;1.80;;
34212;SDS011;20477;51.390;8.102;2023-04-24T11:50:32;3.28;;;2.00;;
34212;SDS011;20477;51.390;8.102;2023-04-24T11:53:01;3.33;;;1.98;;
34212;SDS011;20477;51.390;8.102;2023-04-24T11:55:29;6.43;;;3.53;;
34212;SDS011;20477;51.390;8.102;2023-04-24T11:57:58;3.65;;;2.30;;
34212;SDS011;20477;51.390;8.102;2023-04-24T12:00:27;4.22;;;2.53;;
34212;SDS011;20477;51.390;8.102;2023-04-24T12:03:05;4.75;;;3.10;;
34212;SDS011;20477;51.390;8.102;2023-04-24T12:05:34;2.97;;;2.63;;
34212;SDS011;20477;51.390;8.102;2023-04-24T12:08:02;4.90;;;2.80;;
34212;SDS011;20477;51.390;8.102;2023-04-24T12:10:31;4.70;;;2.90;;
34212;SDS011;20477;51.390;8.102;2023-04-24T12:13:00;5.93;;;2.63;;
34212;SDS011;20477;51.390;8.102;2023-04-24T12:15:29;12.95;;;3.42;;
34212;SDS011;20477;51.390;8.102;2023-04-24T12:17:57;6.55;;;4.13;;
34212;SDS011;20477;51.390;8.102;2023-04-24T12:20:28;11.77;;;3.72;;
34212;SDS011;20477;51.390;8.102;2023-04-24T12:22:58;10.48;;;3.85;;
34212;SDS011;20477;51.390;8.102;2023-04-24T12:25:27;7.82;;;4.05;;
34212;SDS011;20477;51.390;8.102;2023-04-24T12:28:09;13.10;;;4.68;;
34212;SDS011;20477;51.390;8.102;2023-04-24T12:30:39;11.05;;;3.55;;
34212;SDS011;20477;51.390;8.102;2023-04-24T12:33:10;9.57;;;4.18;;
34212;SDS011;20477;51.390;8.102;2023-04-24T12:35:40;9.75;;;3.92;;
34212;SDS011;20477;51.390;8.102;2023-04-24T12:38:08;16.50;;;5.18;;
34212;SDS011;20477;51.390;8.102;2023-04-24T12:40:38;9.38;;;4.55;;
34212;SDS011;20477;51.390;8.102;2023-04-24T12:43:13;12.82;;;4.38;;
34212;SDS011;20477;51.390;8.102;2023-04-24T12:45:41;10.13;;;4.65;;
34212;SDS011;20477;51.390;8.102;2023-04-24T12:48:11;12.90;;;5.07;;
34212;SDS011;20477;51.390;8.102;2023-04-24T12:50:42;11.93;;;5.38;;
34212;SDS011;20477;51.390;8.102;2023-04-24T12:53:12;13.53;;;6.77;;
34212;SDS011;20477;51.390;8.102;2023-04-24T12:55:41;12.98;;;6.55;;
34212;SDS011;20477;51.390;8.102;2023-04-24T12:58:10;11.60;;;6.20;;
34212;SDS011;20477;51.390;8.102;2023-04-24T13:00:38;21.85;;;6.38;;
34212;SDS011;20477;51.390;8.102;2023-04-24T13:03:09;14.07;;;6.80;;
34212;SDS011;20477;51.390;8.102;2023-04-24T13:05:38;17.38;;;7.03;;
34212;SDS011;20477;51.390;8.102;2023-04-24T13:08:07;16.70;;;6.80;;
34212;SDS011;20477;51.390;8.102;2023-04-24T13:10:35;15.55;;;7.47;;
34212;SDS011;20477;51.390;8.102;2023-04-24T13:13:03;19.10;;;7.40;;
34212;SDS011;20477;51.390;8.102;2023-04-24T13:15:31;14.07;;;6.53;;
34212;SDS011;20477;51.390;8.102;2023-04-24T13:17:59;13.88;;;7.25;;
34212;SDS011;20477;51.390;8.102;2023-04-24T13:20:28;16.15;;;5.90;;
34212;SDS011;20477;51.390;8.102;2023-04-24T13:22:56;12.73;;;5.70;;
34212;SDS011;20477;51.390;8.102;2023-04-24T13:25:25;11.75;;;5.65;;
34212;SDS011;20477;51.390;8.102;2023-04-24T13:27:54;14.68;;;5.60;;
34212;SDS011;20477;51.390;8.102;2023-04-24T13:30:22;15.57;;;5.90;;
34212;SDS011;20477;51.390;8.102;2023-04-24T13:32:50;16.08;;;6.38;;
34212;SDS011;20477;51.390;8.102;2023-04-24T13:35:18;11.82;;;5.20;;
34212;SDS011;20477;51.390;8.102;2023-04-24T13:37:46;13.02;;;4.68;;
34212;SDS011;20477;51.390;8.102;2023-04-24T13:40:14;12.77;;;5.50;;
34212;SDS011;20477;51.390;8.102;2023-04-24T13:42:44;11.38;;;4.07;;
34212;SDS011;20477;51.390;8.102;2023-04-24T13:45:12;12.75;;;5.22;;
34212;SDS011;20477;51.390;8.102;2023-04-24T13:47:50;6.15;;;4.18;;
34212;SDS011;20477;51.390;8.102;2023-04-24T13:50:20;10.70;;;4.88;;
34212;SDS011;20477;51.390;8.102;2023-04-24T13:52:48;16.60;;;5.13;;
34212;SDS011;20477;51.390;8.102;2023-04-24T13:55:16;9.65;;;3.95;;
34212;SDS011;20477;51.390;8.102;2023-04-24T13:57:45;15.23;;;5.32;;
34212;SDS011;20477;51.390;8.102;2023-04-24T14:00:14;7.65;;;3.88;;
34212;SDS011;20477;51.390;8.102;2023-04-24T14:02:43;11.75;;;5.18;;
34212;SDS011;20477;51.390;8.102;2023-04-24T14:05:12;11.02;;;4.68;;
34212;SDS011;20477;51.390;8.102;2023-04-24T14:07:40;14.38;;;4.88;;
34212;SDS011;20477;51.390;8.102;2023-04-24T14:10:08;12.48;;;4.43;;
34212;SDS011;20477;51.390;8.102;2023-04-24T14:12:36;7.53;;;4.03;;
34212;SDS011;20477;51.390;8.102;2023-04-24T14:15:07;8.40;;;3.45;;
34212;SDS011;20477;51.390;8.102;2023-04-24T14:17:36;9.65;;;3.85;;
34212;SDS011;20477;51.390;8.102;2023-04-24T14:20:05;16.80;;;5.00;;
34212;SDS011;20477;51.390;8.102;2023-04-24T14:22:35;10.50;;;4.10;;
34212;SDS011;20477;51.390;8.102;2023-04-24T14:25:03;11.02;;;3.47;;
34212;SDS011;20477;51.390;8.102;2023-04-24T14:27:32;8.23;;;3.25;;
34212;SDS011;20477;51.390;8.102;2023-04-24T14:30:00;5.90;;;3.13;;
34212;SDS011;20477;51.390;8.102;2023-04-24T14:32:30;5.95;;;2.78;;
34212;SDS011;20477;51.390;8.102;2023-04-24T14:34:58;5.60;;;2.95;;
34212;SDS011;20477;51.390;8.102;2023-04-24T14:37:26;9.70;;;3.58;;
34212;SDS011;20477;51.390;8.102;2023-04-24T14:39:55;6.13;;;3.20;;
34212;SDS011;20477;51.390;8.102;2023-04-24T14:42:41;12.70;;;3.60;;
34212;SDS011;20477;51.390;8.102;2023-04-24T14:45:09;15.02;;;3.67;;
34212;SDS011;20477;51.390;8.102;2023-04-24T14:47:39;5.63;;;3.33;;
34212;SDS011;20477;51.390;8.102;2023-04-24T14:50:07;10.55;;;3.50;;
34212;SDS011;20477;51.390;8.102;2023-04-24T14:52:36;7.70;;;3.58;;
34212;SDS011;20477;51.390;8.102;2023-04-24T14:55:05;10.13;;;3.20;;
34212;SDS011;20477;51.390;8.102;2023-04-24T14:57:33;9.68;;;4.15;;
34212;SDS011;20477;51.390;8.102;2023-04-24T15:00:02;7.72;;;3.40;;
34212;SDS011;20477;51.390;8.102;2023-04-24T15:02:32;6.13;;;3.47;;